sensor_id;sensor_type;location;lat;lon;timestamp;pressure;altitude;pressure_sealevel;temperature
20490;BMP280;10403;54.092;12.122;2022-08-27T00:01:45;101365.06;;;23.63
20490;BMP280;10403;54.092;12.122;2022-08-27T00:04:12;101411.31;;;23.79
20490;BMP280;10403;54.092;12.122;2022-08-27T00:06:39;101400.63;;;23.79
20490;BMP280;10403;54.092;12.122;2022-08-27T00:09:07;101373.25;;;23.60
20490;BMP280;10403;54.092;12.122;2022-08-27T00:11:35;101400.78;;;23.76
20490;BMP280;10403;54.092;12.122;2022-08-27T00:14:03;101373.44;;;23.57
20490;BMP280;10403;54.092;12.122;2022-08-27T00:16:30;101365.59;;;23.54
20490;BMP280;10403;54.092;12.122;2022-08-27T00:18:58;101395.78;;;23.70
20490;BMP280;10403;54.092;12.122;2022-08-27T00:21:26;101373.50;;;23.55
20490;BMP280;10403;54.092;12.122;2022-08-27T00:23:53;101385.75;;;23.59
20490;BMP280;10403;54.092;12.122;2022-08-27T00:26:20;101397.09;;;23.63
20490;BMP280;10403;54.092;12.122;2022-08-27T00:28:48;101350.84;;;23.31
20490;BMP280;10403;54.092;12.122;2022-08-27T00:31:15;101328.41;;;23.19
20490;BMP280;10403;54.092;12.122;2022-08-27T00:33:44;101394.81;;;23.57
20490;BMP280;10403;54.092;12.122;2022-08-27T00:36:12;101400.91;;;23.59
20490;BMP280;10403;54.092;12.122;2022-08-27T00:38:40;101385.22;;;23.53
20490;BMP280;10403;54.092;12.122;2022-08-27T00:41:11;101367.31;;;23.39
20490;BMP280;10403;54.092;12.122;2022-08-27T00:46:49;101349.56;;;23.22
20490;BMP280;10403;54.092;12.122;2022-08-27T00:49:50;101394.19;;;23.52
20490;BMP280;10403;54.092;12.122;2022-08-27T00:52:42;101399.53;;;23.52
20490;BMP280;10403;54.092;12.122;2022-08-27T00:55:26;101401.47;;;23.50
20490;BMP280;10403;54.092;12.122;2022-08-27T00:58:24;101314.66;;;22.96
20490;BMP280;10403;54.092;12.122;2022-08-27T01:00:52;101399.16;;;23.42
20490;BMP280;10403;54.092;12.122;2022-08-27T01:03:20;101331.16;;;23.02
20490;BMP280;10403;54.092;12.122;2022-08-27T01:05:49;101388.34;;;23.30
20490;BMP280;10403;54.092;12.122;2022-08-27T01:08:21;101388.75;;;23.22
20490;BMP280;10403;54.092;12.122;2022-08-27T01:10:50;101408.94;;;23.28
20490;BMP280;10403;54.092;12.122;2022-08-27T01:13:22;101385.59;;;23.15
20490;BMP280;10403;54.092;12.122;2022-08-27T01:16:22;101403.16;;;23.19
20490;BMP280;10403;54.092;12.122;2022-08-27T01:18:50;101380.34;;;22.98
20490;BMP280;10403;54.092;12.122;2022-08-27T01:21:50;101401.16;;;23.07
20490;BMP280;10403;54.092;12.122;2022-08-27T01:24:27;101403.50;;;23.13
20490;BMP280;10403;54.092;12.122;2022-08-27T01:26:58;101412.34;;;23.14
20490;BMP280;10403;54.092;12.122;2022-08-27T01:29:26;101355.19;;;22.86
20490;BMP280;10403;54.092;12.122;2022-08-27T01:32:04;101393.00;;;23.10
20490;BMP280;10403;54.092;12.122;2022-08-27T01:34:32;101401.97;;;23.09
20490;BMP280;10403;54.092;12.122;2022-08-27T01:36:59;101405.56;;;23.08
20490;BMP280;10403;54.092;12.122;2022-08-27T01:39:27;101398.75;;;23.03
20490;BMP280;10403;54.092;12.122;2022-08-27T01:42:07;101394.78;;;22.94
20490;BMP280;10403;54.092;12.122;2022-08-27T01:44:55;101394.50;;;22.83
20490;BMP280;10403;54.092;12.122;2022-08-27T01:47:25;101370.22;;;22.72
20490;BMP280;10403;54.092;12.122;2022-08-27T01:49:58;101396.22;;;22.84
20490;BMP280;10403;54.092;12.122;2022-08-27T01:52:28;101372.03;;;22.71
20490;BMP280;10403;54.092;12.122;2022-08-27T01:54:56;101384.50;;;22.71
20490;BMP280;10403;54.092;12.122;2022-08-27T01:57:24;101385.50;;;22.68
20490;BMP280;10403;54.092;12.122;2022-08-27T01:59:53;101379.41;;;22.66
20490;BMP280;10403;54.092;12.122;2022-08-27T02:02:23;101403.63;;;22.79
20490;BMP280;10403;54.092;12.122;2022-08-27T02:04:51;101408.03;;;22.80
20490;BMP280;10403;54.092;12.122;2022-08-27T02:07:18;101390.69;;;22.71
20490;BMP280;10403;54.092;12.122;2022-08-27T02:09:45;101408.97;;;22.79
20490;BMP280;10403;54.092;12.122;2022-08-27T02:12:12;101398.59;;;22.73
20490;BMP280;10403;54.092;12.122;2022-08-27T02:14:39;101409.25;;;22.73
20490;BMP280;10403;54.092;12.122;2022-08-27T02:17:06;101429.19;;;22.83
20490;BMP280;10403;54.092;12.122;2022-08-27T02:19:33;101417.41;;;22.87
20490;BMP280;10403;54.092;12.122;2022-08-27T02:22:00;101422.59;;;22.90
20490;BMP280;10403;54.092;12.122;2022-08-27T02:24:28;101397.44;;;22.78
20490;BMP280;10403;54.092;12.122;2022-08-27T02:26:56;101418.00;;;22.92
20490;BMP280;10403;54.092;12.122;2022-08-27T02:29:24;101414.50;;;22.92
20490;BMP280;10403;54.092;12.122;2022-08-27T02:31:51;101409.34;;;22.88
20490;BMP280;10403;54.092;12.122;2022-08-27T02:34:18;101412.59;;;22.94
20490;BMP280;10403;54.092;12.122;2022-08-27T02:36:46;101381.28;;;22.81
20490;BMP280;10403;54.092;12.122;2022-08-27T02:39:13;101389.09;;;22.84
20490;BMP280;10403;54.092;12.122;2022-08-27T02:41:40;101407.97;;;22.97
20490;BMP280;10403;54.092;12.122;2022-08-27T02:44:07;101310.44;;;22.43
20490;BMP280;10403;54.092;12.122;2022-08-27T02:46:38;101404.34;;;22.98
20490;BMP280;10403;54.092;12.122;2022-08-27T02:49:05;101386.84;;;22.93
20490;BMP280;10403;54.092;12.122;2022-08-27T02:51:33;101367.81;;;22.83
20490;BMP280;10403;54.092;12.122;2022-08-27T02:54:01;101384.19;;;22.93
20490;BMP280;10403;54.092;12.122;2022-08-27T02:56:29;101397.13;;;23.00
20490;BMP280;10403;54.092;12.122;2022-08-27T02:58:56;101378.19;;;22.89
20490;BMP280;10403;54.092;12.122;2022-08-27T03:01:25;101379.63;;;22.95
20490;BMP280;10403;54.092;12.122;2022-08-27T03:03:52;101388.19;;;23.01
20490;BMP280;10403;54.092;12.122;2022-08-27T03:06:20;101390.56;;;23.06
20490;BMP280;10403;54.092;12.122;2022-08-27T03:08:47;101378.44;;;23.00
20490;BMP280;10403;54.092;12.122;2022-08-27T03:11:20;101388.00;;;23.04
20490;BMP280;10403;54.092;12.122;2022-08-27T03:13:50;101384.53;;;23.02
20490;BMP280;10403;54.092;12.122;2022-08-27T03:16:17;101397.22;;;22.99
20490;BMP280;10403;54.092;12.122;2022-08-27T03:18:45;101403.50;;;22.98
20490;BMP280;10403;54.092;12.122;2022-08-27T03:21:24;101393.31;;;22.88
20490;BMP280;10403;54.092;12.122;2022-08-27T03:23:51;101382.81;;;22.85
20490;BMP280;10403;54.092;12.122;2022-08-27T03:26:19;101373.16;;;22.83
20490;BMP280;10403;54.092;12.122;2022-08-27T03:28:47;101404.59;;;22.94
20490;BMP280;10403;54.092;12.122;2022-08-27T03:31:18;101370.59;;;22.81
20490;BMP280;10403;54.092;12.122;2022-08-27T03:34:00;101400.75;;;22.99
20490;BMP280;10403;54.092;12.122;2022-08-27T03:36:29;101401.06;;;22.93
20490;BMP280;10403;54.092;12.122;2022-08-27T03:38:57;101416.03;;;22.96
20490;BMP280;10403;54.092;12.122;2022-08-27T03:41:24;101387.19;;;22.86
20490;BMP280;10403;54.092;12.122;2022-08-27T03:44:12;101393.31;;;22.88
20490;BMP280;10403;54.092;12.122;2022-08-27T03:46:48;101383.84;;;22.83
20490;BMP280;10403;54.092;12.122;2022-08-27T03:49:18;101405.38;;;22.96
20490;BMP280;10403;54.092;12.122;2022-08-27T03:51:49;101405.44;;;22.94
20490;BMP280;10403;54.092;12.122;2022-08-27T03:54:16;101410.78;;;22.94
20490;BMP280;10403;54.092;12.122;2022-08-27T03:56:43;101379.78;;;22.76
20490;BMP280;10403;54.092;12.122;2022-08-27T03:59:11;101417.19;;;22.92
20490;BMP280;10403;54.092;12.122;2022-08-27T04:01:38;101410.00;;;22.92
20490;BMP280;10403;54.092;12.122;2022-08-27T04:04:05;101403.13;;;22.88
20490;BMP280;10403;54.092;12.122;2022-08-27T04:06:33;101410.78;;;22.94
20490;BMP280;10403;54.092;12.122;2022-08-27T04:09:02;101372.97;;;22.70
20490;BMP280;10403;54.092;12.122;2022-08-27T04:11:31;101368.50;;;22.71
20490;BMP280;10403;54.092;12.122;2022-08-27T04:14:03;101414.50;;;22.92
20490;BMP280;10403;54.092;12.122;2022-08-27T04:16:50;101411.94;;;22.90
20490;BMP280;10403;54.092;12.122;2022-08-27T04:19:18;101412.78;;;22.91
20490;BMP280;10403;54.092;12.122;2022-08-27T04:21:49;101404.66;;;22.92
20490;BMP280;10403;54.092;12.122;2022-08-27T04:24:16;101401.91;;;22.94
20490;BMP280;10403;54.092;12.122;2022-08-27T04:26:44;101413.38;;;22.96
20490;BMP280;10403;54.092;12.122;2022-08-27T04:29:13;101411.66;;;22.95
20490;BMP280;10403;54.092;12.122;2022-08-27T04:31:40;101396.06;;;22.87
20490;BMP280;10403;54.092;12.122;2022-08-27T04:34:08;101407.19;;;22.95
20490;BMP280;10403;54.092;12.122;2022-08-27T04:36:35;101402.00;;;22.92
20490;BMP280;10403;54.092;12.122;2022-08-27T04:39:02;101360.38;;;22.72
20490;BMP280;10403;54.092;12.122;2022-08-27T04:41:29;101408.03;;;22.96
20490;BMP280;10403;54.092;12.122;2022-08-27T04:44:05;101412.50;;;22.95
20490;BMP280;10403;54.092;12.122;2022-08-27T04:46:38;101385.91;;;22.78
20490;BMP280;10403;54.092;12.122;2022-08-27T04:49:10;101410.97;;;22.91
20490;BMP280;10403;54.092;12.122;2022-08-27T04:51:40;101412.69;;;22.92
20490;BMP280;10403;54.092;12.122;2022-08-27T04:54:09;101405.97;;;22.85
20490;BMP280;10403;54.092;12.122;2022-08-27T04:56:37;101396.59;;;22.78
20490;BMP280;10403;54.092;12.122;2022-08-27T04:59:08;101417.94;;;22.94
20490;BMP280;10403;54.092;12.122;2022-08-27T05:01:38;101375.72;;;22.69
20490;BMP280;10403;54.092;12.122;2022-08-27T05:04:07;101434.03;;;22.92
20490;BMP280;10403;54.092;12.122;2022-08-27T05:06:34;101409.25;;;22.73
20490;BMP280;10403;54.092;12.122;2022-08-27T05:09:05;101406.50;;;22.74
20490;BMP280;10403;54.092;12.122;2022-08-27T05:11:32;101409.38;;;22.71
20490;BMP280;10403;54.092;12.122;2022-08-27T05:14:07;101431.84;;;22.83
20490;BMP280;10403;54.092;12.122;2022-08-27T05:16:34;101419.66;;;22.79
20490;BMP280;10403;54.092;12.122;2022-08-27T05:19:05;101420.50;;;22.79
20490;BMP280;10403;54.092;12.122;2022-08-27T05:21:37;101407.88;;;22.66
20490;BMP280;10403;54.092;12.122;2022-08-27T05:24:06;101422.69;;;22.71
20490;BMP280;10403;54.092;12.122;2022-08-27T05:26:35;101406.34;;;22.62
20490;BMP280;10403;54.092;12.122;2022-08-27T05:29:04;101417.53;;;22.68
20490;BMP280;10403;54.092;12.122;2022-08-27T05:31:33;101407.09;;;22.64
20490;BMP280;10403;54.092;12.122;2022-08-27T05:34:01;101426.72;;;22.80
20490;BMP280;10403;54.092;12.122;2022-08-27T05:36:36;101427.38;;;22.83
20490;BMP280;10403;54.092;12.122;2022-08-27T05:39:15;101439.72;;;22.86
20490;BMP280;10403;54.092;12.122;2022-08-27T05:41:43;101400.13;;;22.61
20490;BMP280;10403;54.092;12.122;2022-08-27T05:44:11;101404.25;;;22.67
20490;BMP280;10403;54.092;12.122;2022-08-27T05:46:58;101431.19;;;22.79
20490;BMP280;10403;54.092;12.122;2022-08-27T05:49:25;101426.72;;;22.80
20490;BMP280;10403;54.092;12.122;2022-08-27T05:51:52;101439.13;;;22.81
20490;BMP280;10403;54.092;12.122;2022-08-27T05:54:19;101433.78;;;22.81
20490;BMP280;10403;54.092;12.122;2022-08-27T05:56:47;101435.47;;;22.82
20490;BMP280;10403;54.092;12.122;2022-08-27T05:59:16;101433.78;;;22.81
20490;BMP280;10403;54.092;12.122;2022-08-27T06:02:03;101429.38;;;22.80
20490;BMP280;10403;54.092;12.122;2022-08-27T06:04:32;101418.00;;;22.76
20490;BMP280;10403;54.092;12.122;2022-08-27T06:06:59;101422.06;;;22.83
20490;BMP280;10403;54.092;12.122;2022-08-27T06:09:28;101412.25;;;22.84
20490;BMP280;10403;54.092;12.122;2022-08-27T06:12:01;101398.13;;;22.82
20490;BMP280;10403;54.092;12.122;2022-08-27T06:14:28;101359.19;;;22.62
20490;BMP280;10403;54.092;12.122;2022-08-27T06:16:58;101364.88;;;22.72
20490;BMP280;10403;54.092;12.122;2022-08-27T06:19:26;101335.59;;;22.55
20490;BMP280;10403;54.092;12.122;2022-08-27T06:21:53;101408.97;;;22.95
20490;BMP280;10403;54.092;12.122;2022-08-27T06:24:37;101400.91;;;22.96
20490;BMP280;10403;54.092;12.122;2022-08-27T06:27:07;101399.00;;;22.98
20490;BMP280;10403;54.092;12.122;2022-08-27T06:29:34;101399.97;;;22.97
20490;BMP280;10403;54.092;12.122;2022-08-27T06:32:02;101344.66;;;22.68
20490;BMP280;10403;54.092;12.122;2022-08-27T06:34:29;101396.44;;;22.97
20490;BMP280;10403;54.092;12.122;2022-08-27T06:36:56;101400.38;;;23.05
20490;BMP280;10403;54.092;12.122;2022-08-27T06:39:23;101394.09;;;23.06
20490;BMP280;10403;54.092;12.122;2022-08-27T06:41:50;101396.78;;;23.06
20490;BMP280;10403;54.092;12.122;2022-08-27T06:44:18;101381.44;;;22.94
20490;BMP280;10403;54.092;12.122;2022-08-27T06:46:45;101217.03;;;21.96
20490;BMP280;10403;54.092;12.122;2022-08-27T06:49:13;101405.88;;;23.02
20490;BMP280;10403;54.092;12.122;2022-08-27T06:51:45;101362.97;;;22.74
20490;BMP280;10403;54.092;12.122;2022-08-27T06:54:14;101413.66;;;22.91
20490;BMP280;10403;54.092;12.122;2022-08-27T06:56:42;101418.94;;;22.75
20490;BMP280;10403;54.092;12.122;2022-08-27T06:59:14;101410.97;;;22.58
20490;BMP280;10403;54.092;12.122;2022-08-27T07:01:46;101426.63;;;22.64
20490;BMP280;10403;54.092;12.122;2022-08-27T07:04:23;101420.91;;;22.55
20490;BMP280;10403;54.092;12.122;2022-08-27T07:07:02;101426.09;;;22.58
20490;BMP280;10403;54.092;12.122;2022-08-27T07:09:30;101434.97;;;22.58
20490;BMP280;10403;54.092;12.122;2022-08-27T07:12:00;101435.81;;;22.59
20490;BMP280;10403;54.092;12.122;2022-08-27T07:14:32;101443.03;;;22.57
20490;BMP280;10403;54.092;12.122;2022-08-27T07:17:05;101428.94;;;22.37
20490;BMP280;10403;54.092;12.122;2022-08-27T07:19:37;101444.81;;;22.40
20490;BMP280;10403;54.092;12.122;2022-08-27T07:22:07;101446.81;;;22.35
20490;BMP280;10403;54.092;12.122;2022-08-27T07:24:34;101442.75;;;22.28
20490;BMP280;10403;54.092;12.122;2022-08-27T07:27:01;101446.91;;;22.34
20490;BMP280;10403;54.092;12.122;2022-08-27T07:29:29;101436.63;;;22.26
20490;BMP280;10403;54.092;12.122;2022-08-27T07:31:58;101455.75;;;22.34
20490;BMP280;10403;54.092;12.122;2022-08-27T07:34:25;101447.00;;;22.32
20490;BMP280;10403;54.092;12.122;2022-08-27T07:36:52;101439.44;;;22.23
20490;BMP280;10403;54.092;12.122;2022-08-27T07:39:19;101453.50;;;22.27
20490;BMP280;10403;54.092;12.122;2022-08-27T07:41:46;101453.03;;;22.36
20490;BMP280;10403;54.092;12.122;2022-08-27T07:44:32;101441.09;;;22.26
20490;BMP280;10403;54.092;12.122;2022-08-27T07:47:01;101459.16;;;22.38
20490;BMP280;10403;54.092;12.122;2022-08-27T07:49:29;101462.75;;;22.37
20490;BMP280;10403;54.092;12.122;2022-08-27T07:51:57;101455.94;;;22.31
20490;BMP280;10403;54.092;12.122;2022-08-27T07:54:25;101470.03;;;22.33
20490;BMP280;10403;54.092;12.122;2022-08-27T07:56:53;101469.19;;;22.33
20490;BMP280;10403;54.092;12.122;2022-08-27T07:59:25;101468.34;;;22.32
20490;BMP280;10403;54.092;12.122;2022-08-27T08:01:54;101474.53;;;22.33
20490;BMP280;10403;54.092;12.122;2022-08-27T08:04:23;101473.66;;;22.32
20490;BMP280;10403;54.092;12.122;2022-08-27T08:06:51;101479.16;;;22.29
20490;BMP280;10403;54.092;12.122;2022-08-27T08:09:20;101479.88;;;22.33
20490;BMP280;10403;54.092;12.122;2022-08-27T08:11:51;101479.28;;;22.26
20490;BMP280;10403;54.092;12.122;2022-08-27T08:14:19;101496.06;;;22.28
20490;BMP280;10403;54.092;12.122;2022-08-27T08:16:46;101476.47;;;22.12
20490;BMP280;10403;54.092;12.122;2022-08-27T08:19:14;101462.75;;;22.02
20490;BMP280;10403;54.092;12.122;2022-08-27T08:21:41;101468.78;;;22.06
20490;BMP280;10403;54.092;12.122;2022-08-27T08:24:09;101506.03;;;22.25
20490;BMP280;10403;54.092;12.122;2022-08-27T08:26:36;101484.47;;;22.12
20490;BMP280;10403;54.092;12.122;2022-08-27T08:29:04;101492.00;;;22.21
20490;BMP280;10403;54.092;12.122;2022-08-27T08:31:31;101483.28;;;22.18
20490;BMP280;10403;54.092;12.122;2022-08-27T08:33:59;101449.69;;;21.96
20490;BMP280;10403;54.092;12.122;2022-08-27T08:36:26;101454.91;;;21.99
20490;BMP280;10403;54.092;12.122;2022-08-27T08:38:54;101497.16;;;22.24
20490;BMP280;10403;54.092;12.122;2022-08-27T08:43:58;101496.69;;;22.33
20490;BMP280;10403;54.092;12.122;2022-08-27T08:46:59;101499.00;;;22.41
20490;BMP280;10403;54.092;12.122;2022-08-27T08:50:09;101488.69;;;22.33
20490;BMP280;10403;54.092;12.122;2022-08-27T08:53:05;101500.31;;;22.49
20490;BMP280;10403;54.092;12.122;2022-08-27T08:55:56;101483.00;;;22.41
20490;BMP280;10403;54.092;12.122;2022-08-27T08:58:57;101467.47;;;22.32
20490;BMP280;10403;54.092;12.122;2022-08-27T09:01:27;101493.09;;;22.51
20490;BMP280;10403;54.092;12.122;2022-08-27T09:03:59;101508.63;;;22.61
20490;BMP280;10403;54.092;12.122;2022-08-27T09:06:49;101503.28;;;22.61
20490;BMP280;10403;54.092;12.122;2022-08-27T09:09:33;101505.97;;;22.61
20490;BMP280;10403;54.092;12.122;2022-08-27T09:12:15;101506.81;;;22.61
20490;BMP280;10403;54.092;12.122;2022-08-27T09:15:00;101505.97;;;22.61
20490;BMP280;10403;54.092;12.122;2022-08-27T09:17:31;101512.31;;;22.58
20490;BMP280;10403;54.092;12.122;2022-08-27T09:19:59;101478.66;;;22.38
20490;BMP280;10403;54.092;12.122;2022-08-27T09:25:27;101509.84;;;22.53
20490;BMP280;10403;54.092;12.122;2022-08-27T09:28:01;101451.69;;;22.27
20490;BMP280;10403;54.092;12.122;2022-08-27T09:30:41;101507.84;;;22.59
20490;BMP280;10403;54.092;12.122;2022-08-27T09:33:08;101510.44;;;22.60
20490;BMP280;10403;54.092;12.122;2022-08-27T09:35:43;101500.78;;;22.58
20490;BMP280;10403;54.092;12.122;2022-08-27T09:38:25;101506.50;;;22.50
20490;BMP280;10403;54.092;12.122;2022-08-27T09:40:59;101494.97;;;22.49
20490;BMP280;10403;54.092;12.122;2022-08-27T09:43:28;101511.38;;;22.59
20490;BMP280;10403;54.092;12.122;2022-08-27T09:46:16;101503.09;;;22.64
20490;BMP280;10403;54.092;12.122;2022-08-27T09:48:44;101487.59;;;22.55
20490;BMP280;10403;54.092;12.122;2022-08-27T09:51:19;101509.22;;;22.66
20490;BMP280;10403;54.092;12.122;2022-08-27T09:54:00;101499.84;;;22.59
20490;BMP280;10403;54.092;12.122;2022-08-27T09:56:46;101515.75;;;22.60
20490;BMP280;10403;54.092;12.122;2022-08-27T10:02:18;101514.91;;;22.60
20490;BMP280;10403;54.092;12.122;2022-08-27T10:04:52;101494.81;;;22.52
20490;BMP280;10403;54.092;12.122;2022-08-27T10:07:51;101490.50;;;22.50
20490;BMP280;10403;54.092;12.122;2022-08-27T10:10:45;101491.97;;;22.56
20490;BMP280;10403;54.092;12.122;2022-08-27T10:13:55;101494.72;;;22.54
20490;BMP280;10403;54.092;12.122;2022-08-27T10:25:58;101497.97;;;22.78
20490;BMP280;10403;54.092;12.122;2022-08-27T10:31:52;101500.28;;;22.67
20490;BMP280;10403;54.092;12.122;2022-08-27T10:37:14;101501.56;;;22.77
20490;BMP280;10403;54.092;12.122;2022-08-27T10:45:47;101471.28;;;22.61
20490;BMP280;10403;54.092;12.122;2022-08-27T10:48:29;101508.47;;;22.81
20490;BMP280;10403;54.092;12.122;2022-08-27T10:51:18;101506.25;;;22.89
20490;BMP280;10403;54.092;12.122;2022-08-27T10:57:02;101509.03;;;23.03
20490;BMP280;10403;54.092;12.122;2022-08-27T11:00:22;101505.63;;;23.17
20490;BMP280;10403;54.092;12.122;2022-08-27T11:02:57;101490.19;;;23.22
20490;BMP280;10403;54.092;12.122;2022-08-27T11:05:34;101474.19;;;23.22
20490;BMP280;10403;54.092;12.122;2022-08-27T11:08:12;101502.72;;;23.37
20490;BMP280;10403;54.092;12.122;2022-08-27T11:10:49;101472.72;;;23.16
20490;BMP280;10403;54.092;12.122;2022-08-27T11:13:42;101471.78;;;23.33
20490;BMP280;10403;54.092;12.122;2022-08-27T11:16:24;101461.53;;;23.41
20490;BMP280;10403;54.092;12.122;2022-08-27T11:19:00;101459.06;;;23.38
20490;BMP280;10403;54.092;12.122;2022-08-27T11:21:35;101499.22;;;23.52
20490;BMP280;10403;54.092;12.122;2022-08-27T11:26:59;101454.91;;;23.33
20490;BMP280;10403;54.092;12.122;2022-08-27T11:29:50;101466.78;;;23.43
20490;BMP280;10403;54.092;12.122;2022-08-27T11:32:52;101492.25;;;23.66
20490;BMP280;10403;54.092;12.122;2022-08-27T11:38:52;101488.78;;;23.64
20490;BMP280;10403;54.092;12.122;2022-08-27T11:44:26;101494.63;;;23.70
20490;BMP280;10403;54.092;12.122;2022-08-27T11:47:10;101502.91;;;23.81
20490;BMP280;10403;54.092;12.122;2022-08-27T11:49:47;101500.16;;;23.83
20490;BMP280;10403;54.092;12.122;2022-08-27T11:52:27;101502.66;;;23.86
20490;BMP280;10403;54.092;12.122;2022-08-27T11:55:12;101509.38;;;23.93
20490;BMP280;10403;54.092;12.122;2022-08-27T11:57:42;101475.44;;;23.79
20490;BMP280;10403;54.092;12.122;2022-08-27T12:03:00;101501.75;;;24.01
20490;BMP280;10403;54.092;12.122;2022-08-27T12:05:46;101494.03;;;23.96
20490;BMP280;10403;54.092;12.122;2022-08-27T12:08:30;101509.44;;;24.07
20490;BMP280;10403;54.092;12.122;2022-08-27T12:11:41;101480.34;;;23.87
20490;BMP280;10403;54.092;12.122;2022-08-27T12:20:31;101505.63;;;24.11
20490;BMP280;10403;54.092;12.122;2022-08-27T12:23:28;101512.59;;;24.14
20490;BMP280;10403;54.092;12.122;2022-08-27T12:26:32;101518.91;;;24.13
20490;BMP280;10403;54.092;12.122;2022-08-27T12:32:31;101515.38;;;24.12
20490;BMP280;10403;54.092;12.122;2022-08-27T12:35:11;101485.16;;;23.96
20490;BMP280;10403;54.092;12.122;2022-08-27T12:37:46;101515.13;;;24.17
20490;BMP280;10403;54.092;12.122;2022-08-27T12:40:23;101506.47;;;24.12
20490;BMP280;10403;54.092;12.122;2022-08-27T12:43:10;101483.47;;;24.09
20490;BMP280;10403;54.092;12.122;2022-08-27T12:45:50;101487.09;;;24.24
20490;BMP280;10403;54.092;12.122;2022-08-27T12:48:24;101476.13;;;24.28
20490;BMP280;10403;54.092;12.122;2022-08-27T12:50:59;101523.28;;;24.59
20490;BMP280;10403;54.092;12.122;2022-08-27T12:57:42;101529.06;;;24.67
20490;BMP280;10403;54.092;12.122;2022-08-27T13:00:21;101513.72;;;24.55
20490;BMP280;10403;54.092;12.122;2022-08-27T13:03:18;101529.19;;;24.50
20490;BMP280;10403;54.092;12.122;2022-08-27T13:05:49;101512.16;;;24.37
20490;BMP280;10403;54.092;12.122;2022-08-27T13:08:32;101504.47;;;24.31
20490;BMP280;10403;54.092;12.122;2022-08-27T13:11:23;101534.72;;;24.47
20490;BMP280;10403;54.092;12.122;2022-08-27T13:14:06;101507.63;;;24.23
20490;BMP280;10403;54.092;12.122;2022-08-27T13:16:37;101478.75;;;23.98
20490;BMP280;10403;54.092;12.122;2022-08-27T13:19:17;101524.59;;;24.38
20490;BMP280;10403;54.092;12.122;2022-08-27T13:21:48;101505.81;;;24.24
20490;BMP280;10403;54.092;12.122;2022-08-27T13:24:42;101521.38;;;24.31
20490;BMP280;10403;54.092;12.122;2022-08-27T13:27:10;101535.53;;;24.33
20490;BMP280;10403;54.092;12.122;2022-08-27T13:29:39;101545.47;;;24.31
20490;BMP280;10403;54.092;12.122;2022-08-27T13:32:07;101548.50;;;24.25
20490;BMP280;10403;54.092;12.122;2022-08-27T13:34:38;101532.28;;;24.13
20490;BMP280;10403;54.092;12.122;2022-08-27T13:37:44;101547.28;;;24.15
20490;BMP280;10403;54.092;12.122;2022-08-27T13:40:29;101549.88;;;24.01
20490;BMP280;10403;54.092;12.122;2022-08-27T13:43:09;101543.94;;;23.96
20490;BMP280;10403;54.092;12.122;2022-08-27T13:45:39;101503.53;;;23.55
20490;BMP280;10403;54.092;12.122;2022-08-27T13:48:10;101515.50;;;23.64
20490;BMP280;10403;54.092;12.122;2022-08-27T13:50:52;101521.19;;;23.73
20490;BMP280;10403;54.092;12.122;2022-08-27T13:53:28;101519.81;;;23.66
20490;BMP280;10403;54.092;12.122;2022-08-27T13:56:31;101552.75;;;23.82
20490;BMP280;10403;54.092;12.122;2022-08-27T14:04:46;101552.00;;;23.47
20490;BMP280;10403;54.092;12.122;2022-08-27T14:07:30;101531.41;;;23.34
20490;BMP280;10403;54.092;12.122;2022-08-27T14:10:34;101550.22;;;23.48
20490;BMP280;10403;54.092;12.122;2022-08-27T14:13:09;101532.41;;;23.31
20490;BMP280;10403;54.092;12.122;2022-08-27T14:15:40;101548.19;;;23.36
20490;BMP280;10403;54.092;12.122;2022-08-27T14:18:33;101531.63;;;23.13
20490;BMP280;10403;54.092;12.122;2022-08-27T14:21:21;101554.38;;;23.20
20490;BMP280;10403;54.092;12.122;2022-08-27T14:23:48;101557.22;;;23.17
20490;BMP280;10403;54.092;12.122;2022-08-27T14:26:16;101558.31;;;23.13
20490;BMP280;10403;54.092;12.122;2022-08-27T14:28:44;101560.13;;;23.13
20490;BMP280;10403;54.092;12.122;2022-08-27T14:31:13;101555.72;;;23.12
20490;BMP280;10403;54.092;12.122;2022-08-27T14:33:40;101531.75;;;22.95
20490;BMP280;10403;54.092;12.122;2022-08-27T14:36:08;101541.13;;;23.02
20490;BMP280;10403;54.092;12.122;2022-08-27T14:38:41;101568.13;;;23.13
20490;BMP280;10403;54.092;12.122;2022-08-27T14:41:09;101543.56;;;23.06
20490;BMP280;10403;54.092;12.122;2022-08-27T14:43:37;101522.88;;;22.94
20490;BMP280;10403;54.092;12.122;2022-08-27T14:46:06;101558.50;;;23.10
20490;BMP280;10403;54.092;12.122;2022-08-27T14:48:39;101538.38;;;23.03
20490;BMP280;10403;54.092;12.122;2022-08-27T14:51:29;101574.59;;;23.09
20490;BMP280;10403;54.092;12.122;2022-08-27T14:53:56;101571.69;;;22.96
20490;BMP280;10403;54.092;12.122;2022-08-27T14:56:25;101571.84;;;22.93
20490;BMP280;10403;54.092;12.122;2022-08-27T14:58:52;101560.56;;;22.88
20490;BMP280;10403;54.092;12.122;2022-08-27T15:01:23;101573.41;;;22.97
20490;BMP280;10403;54.092;12.122;2022-08-27T15:03:52;101563.53;;;22.99
20490;BMP280;10403;54.092;12.122;2022-08-27T15:06:21;101563.47;;;23.01
20490;BMP280;10403;54.092;12.122;2022-08-27T15:08:50;101555.53;;;22.99
20490;BMP280;10403;54.092;12.122;2022-08-27T15:11:22;101550.34;;;22.96
20490;BMP280;10403;54.092;12.122;2022-08-27T15:13:53;101545.16;;;22.93
20490;BMP280;10403;54.092;12.122;2022-08-27T15:16:36;101579.44;;;23.18
20490;BMP280;10403;54.092;12.122;2022-08-27T15:19:08;101556.84;;;23.08
20490;BMP280;10403;54.092;12.122;2022-08-27T15:21:39;101581.38;;;23.14
20490;BMP280;10403;54.092;12.122;2022-08-27T15:24:23;101573.00;;;23.05
20490;BMP280;10403;54.092;12.122;2022-08-27T15:26:54;101577.00;;;23.13
20490;BMP280;10403;54.092;12.122;2022-08-27T15:29:25;101583.38;;;23.11